sensor_id;sensor_type;location;lat;lon;timestamp;P1;durP1;ratioP1;P2;durP2;ratioP2
68989;SDS011;56046;47.270;11.368;2023-03-24T00:00:49;8.73;;;3.40;;
68989;SDS011;56046;47.270;11.368;2023-03-24T00:03:15;6.07;;;3.17;;
68989;SDS011;56046;47.270;11.368;2023-03-24T00:05:41;6.43;;;3.60;;
68989;SDS011;56046;47.270;11.368;2023-03-24T00:08:08;9.10;;;5.55;;
68989;SDS011;56046;47.270;11.368;2023-03-24T00:10:33;9.73;;;5.13;;
68989;SDS011;56046;47.270;11.368;2023-03-24T00:13:01;10.98;;;5.00;;
68989;SDS011;56046;47.270;11.368;2023-03-24T00:15:26;9.77;;;4.53;;
68989;SDS011;56046;47.270;11.368;2023-03-24T00:17:52;6.57;;;3.83;;
68989;SDS011;56046;47.270;11.368;2023-03-24T00:20:18;7.55;;;3.67;;
68989;SDS011;56046;47.270;11.368;2023-03-24T00:22:45;7.53;;;3.37;;
68989;SDS011;56046;47.270;11.368;2023-03-24T00:25:13;7.80;;;3.83;;
68989;SDS011;56046;47.270;11.368;2023-03-24T00:27:38;7.55;;;4.10;;
68989;SDS011;56046;47.270;11.368;2023-03-24T00:30:07;9.87;;;3.70;;
68989;SDS011;56046;47.270;11.368;2023-03-24T00:32:34;8.60;;;4.00;;
68989;SDS011;56046;47.270;11.368;2023-03-24T00:35:01;7.25;;;4.32;;
68989;SDS011;56046;47.270;11.368;2023-03-24T00:37:26;7.20;;;3.70;;
68989;SDS011;56046;47.270;11.368;2023-03-24T00:39:51;7.90;;;4.30;;
68989;SDS011;56046;47.270;11.368;2023-03-24T00:42:17;8.13;;;4.23;;
68989;SDS011;56046;47.270;11.368;2023-03-24T00:44:42;7.93;;;3.40;;
68989;SDS011;56046;47.270;11.368;2023-03-24T00:47:09;7.23;;;3.33;;
68989;SDS011;56046;47.270;11.368;2023-03-24T00:49:35;9.50;;;3.75;;
68989;SDS011;56046;47.270;11.368;2023-03-24T00:52:10;8.68;;;3.67;;
68989;SDS011;56046;47.270;11.368;2023-03-24T00:54:37;8.88;;;3.42;;
68989;SDS011;56046;47.270;11.368;2023-03-24T00:57:02;8.68;;;4.35;;
68989;SDS011;56046;47.270;11.368;2023-03-24T00:59:29;9.53;;;3.93;;
68989;SDS011;56046;47.270;11.368;2023-03-24T01:01:54;11.02;;;4.10;;
68989;SDS011;56046;47.270;11.368;2023-03-24T01:04:20;9.00;;;4.07;;
68989;SDS011;56046;47.270;11.368;2023-03-24T01:06:48;7.38;;;4.03;;
68989;SDS011;56046;47.270;11.368;2023-03-24T01:09:16;9.00;;;4.55;;
68989;SDS011;56046;47.270;11.368;2023-03-24T01:11:42;7.47;;;3.70;;
68989;SDS011;56046;47.270;11.368;2023-03-24T01:14:08;8.68;;;4.40;;
68989;SDS011;56046;47.270;11.368;2023-03-24T01:16:34;10.40;;;4.63;;
68989;SDS011;56046;47.270;11.368;2023-03-24T01:19:01;8.33;;;4.53;;
68989;SDS011;56046;47.270;11.368;2023-03-24T01:21:26;8.80;;;4.78;;
68989;SDS011;56046;47.270;11.368;2023-03-24T01:23:52;9.00;;;4.27;;
68989;SDS011;56046;47.270;11.368;2023-03-24T01:26:17;10.23;;;4.70;;
68989;SDS011;56046;47.270;11.368;2023-03-24T01:28:42;7.93;;;4.67;;
68989;SDS011;56046;47.270;11.368;2023-03-24T01:31:08;8.87;;;4.17;;
68989;SDS011;56046;47.270;11.368;2023-03-24T01:33:34;7.13;;;4.30;;
68989;SDS011;56046;47.270;11.368;2023-03-24T01:36:00;7.78;;;4.10;;
68989;SDS011;56046;47.270;11.368;2023-03-24T01:38:25;8.30;;;4.10;;
68989;SDS011;56046;47.270;11.368;2023-03-24T01:40:51;8.70;;;5.00;;
68989;SDS011;56046;47.270;11.368;2023-03-24T01:43:26;7.93;;;4.40;;
68989;SDS011;56046;47.270;11.368;2023-03-24T01:51:33;9.65;;;4.70;;
68989;SDS011;56046;47.270;11.368;2023-03-24T01:56:25;10.77;;;4.50;;
68989;SDS011;56046;47.270;11.368;2023-03-24T01:58:52;11.98;;;5.35;;
68989;SDS011;56046;47.270;11.368;2023-03-24T02:01:19;10.25;;;5.22;;
68989;SDS011;56046;47.270;11.368;2023-03-24T02:03:47;9.90;;;5.30;;
68989;SDS011;56046;47.270;11.368;2023-03-24T02:06:13;9.23;;;5.10;;
68989;SDS011;56046;47.270;11.368;2023-03-24T02:08:57;8.25;;;4.70;;
68989;SDS011;56046;47.270;11.368;2023-03-24T02:11:24;10.13;;;4.88;;
68989;SDS011;56046;47.270;11.368;2023-03-24T02:13:50;9.07;;;5.03;;
68989;SDS011;56046;47.270;11.368;2023-03-24T02:52:31;9.10;;;5.10;;
68989;SDS011;56046;47.270;11.368;2023-03-24T02:55:33;12.00;;;4.72;;
68989;SDS011;56046;47.270;11.368;2023-03-24T02:57:52;8.77;;;4.90;;
68989;SDS011;56046;47.270;11.368;2023-03-24T03:03:05;9.13;;;4.57;;
68989;SDS011;56046;47.270;11.368;2023-03-24T03:05:33;10.17;;;4.97;;
68989;SDS011;56046;47.270;11.368;2023-03-24T03:08:00;8.38;;;4.90;;
68989;SDS011;56046;47.270;11.368;2023-03-24T03:10:27;8.95;;;5.10;;
68989;SDS011;56046;47.270;11.368;2023-03-24T03:12:55;7.80;;;4.20;;
68989;SDS011;56046;47.270;11.368;2023-03-24T03:15:22;11.00;;;4.65;;
68989;SDS011;56046;47.270;11.368;2023-03-24T03:17:51;8.33;;;4.30;;
68989;SDS011;56046;47.270;11.368;2023-03-24T03:20:19;9.63;;;5.10;;
68989;SDS011;56046;47.270;11.368;2023-03-24T03:22:56;10.05;;;4.60;;
68989;SDS011;56046;47.270;11.368;2023-03-24T03:25:25;11.23;;;5.28;;
68989;SDS011;56046;47.270;11.368;2023-03-24T03:27:53;10.38;;;5.88;;
68989;SDS011;56046;47.270;11.368;2023-03-24T03:30:42;10.60;;;5.53;;
68989;SDS011;56046;47.270;11.368;2023-03-24T03:33:08;11.68;;;5.32;;
68989;SDS011;56046;47.270;11.368;2023-03-24T03:35:35;10.23;;;5.80;;
68989;SDS011;56046;47.270;11.368;2023-03-24T03:40:50;10.38;;;5.95;;
68989;SDS011;56046;47.270;11.368;2023-03-24T03:43:16;10.30;;;5.07;;
68989;SDS011;56046;47.270;11.368;2023-03-24T03:45:41;9.80;;;4.78;;
68989;SDS011;56046;47.270;11.368;2023-03-24T03:48:07;7.77;;;4.57;;
68989;SDS011;56046;47.270;11.368;2023-03-24T03:50:32;8.70;;;4.30;;
68989;SDS011;56046;47.270;11.368;2023-03-24T03:52:58;8.75;;;4.35;;
68989;SDS011;56046;47.270;11.368;2023-03-24T03:55:25;8.88;;;4.63;;
68989;SDS011;56046;47.270;11.368;2023-03-24T03:57:50;7.87;;;4.20;;
68989;SDS011;56046;47.270;11.368;2023-03-24T04:00:16;10.70;;;4.73;;
68989;SDS011;56046;47.270;11.368;2023-03-24T04:07:58;11.55;;;5.97;;
68989;SDS011;56046;47.270;11.368;2023-03-24T04:18:10;9.03;;;5.57;;
68989;SDS011;56046;47.270;11.368;2023-03-24T04:20:52;8.70;;;4.88;;
68989;SDS011;56046;47.270;11.368;2023-03-24T04:36:06;11.55;;;5.90;;
68989;SDS011;56046;47.270;11.368;2023-03-24T04:38:40;12.40;;;6.10;;
68989;SDS011;56046;47.270;11.368;2023-03-24T04:41:07;9.17;;;5.30;;
68989;SDS011;56046;47.270;11.368;2023-03-24T04:43:32;11.10;;;5.43;;
68989;SDS011;56046;47.270;11.368;2023-03-24T04:46:00;9.73;;;5.10;;
68989;SDS011;56046;47.270;11.368;2023-03-24T04:48:26;9.55;;;6.00;;
68989;SDS011;56046;47.270;11.368;2023-03-24T04:50:53;11.27;;;5.10;;
68989;SDS011;56046;47.270;11.368;2023-03-24T04:53:18;11.90;;;5.07;;
68989;SDS011;56046;47.270;11.368;2023-03-24T04:56:06;12.63;;;8.63;;
68989;SDS011;56046;47.270;11.368;2023-03-24T04:58:37;11.10;;;6.15;;
68989;SDS011;56046;47.270;11.368;2023-03-24T05:01:02;10.63;;;6.77;;
68989;SDS011;56046;47.270;11.368;2023-03-24T05:03:30;11.27;;;6.53;;
68989;SDS011;56046;47.270;11.368;2023-03-24T05:05:55;13.43;;;6.27;;
68989;SDS011;56046;47.270;11.368;2023-03-24T05:08:20;12.33;;;6.27;;
68989;SDS011;56046;47.270;11.368;2023-03-24T05:10:46;12.43;;;5.57;;
68989;SDS011;56046;47.270;11.368;2023-03-24T05:13:12;11.07;;;5.60;;
68989;SDS011;56046;47.270;11.368;2023-03-24T05:15:38;11.65;;;5.90;;
68989;SDS011;56046;47.270;11.368;2023-03-24T05:18:04;11.43;;;6.20;;
68989;SDS011;56046;47.270;11.368;2023-03-24T05:20:29;10.35;;;5.80;;
68989;SDS011;56046;47.270;11.368;2023-03-24T05:22:55;10.60;;;5.50;;
68989;SDS011;56046;47.270;11.368;2023-03-24T05:25:20;10.70;;;5.73;;
68989;SDS011;56046;47.270;11.368;2023-03-24T05:27:46;8.50;;;4.93;;
68989;SDS011;56046;47.270;11.368;2023-03-24T05:30:11;9.93;;;5.47;;
68989;SDS011;56046;47.270;11.368;2023-03-24T05:32:36;9.70;;;5.33;;
68989;SDS011;56046;47.270;11.368;2023-03-24T05:35:02;8.77;;;5.37;;
68989;SDS011;56046;47.270;11.368;2023-03-24T05:37:27;8.95;;;4.82;;
68989;SDS011;56046;47.270;11.368;2023-03-24T05:39:53;9.67;;;5.13;;
68989;SDS011;56046;47.270;11.368;2023-03-24T05:42:18;9.53;;;5.53;;
68989;SDS011;56046;47.270;11.368;2023-03-24T05:44:44;11.50;;;5.15;;
68989;SDS011;56046;47.270;11.368;2023-03-24T05:47:10;13.03;;;6.90;;
68989;SDS011;56046;47.270;11.368;2023-03-24T05:49:36;9.02;;;5.38;;
68989;SDS011;56046;47.270;11.368;2023-03-24T05:52:02;9.83;;;5.10;;
68989;SDS011;56046;47.270;11.368;2023-03-24T05:54:27;10.27;;;5.87;;
68989;SDS011;56046;47.270;11.368;2023-03-24T05:56:52;11.97;;;6.37;;
68989;SDS011;56046;47.270;11.368;2023-03-24T05:59:18;10.13;;;5.80;;
68989;SDS011;56046;47.270;11.368;2023-03-24T06:01:43;10.13;;;5.45;;
68989;SDS011;56046;47.270;11.368;2023-03-24T06:04:08;9.97;;;5.17;;
68989;SDS011;56046;47.270;11.368;2023-03-24T06:06:33;9.87;;;4.73;;
68989;SDS011;56046;47.270;11.368;2023-03-24T06:08:59;15.57;;;8.60;;
68989;SDS011;56046;47.270;11.368;2023-03-24T06:11:27;9.70;;;4.85;;
68989;SDS011;56046;47.270;11.368;2023-03-24T06:13:52;8.93;;;5.83;;
68989;SDS011;56046;47.270;11.368;2023-03-24T06:16:17;9.50;;;5.40;;
68989;SDS011;56046;47.270;11.368;2023-03-24T06:18:47;10.27;;;5.10;;
68989;SDS011;56046;47.270;11.368;2023-03-24T06:21:16;15.32;;;6.57;;
68989;SDS011;56046;47.270;11.368;2023-03-24T06:23:42;12.13;;;6.22;;
68989;SDS011;56046;47.270;11.368;2023-03-24T06:26:09;11.73;;;6.40;;
68989;SDS011;56046;47.270;11.368;2023-03-24T06:28:35;11.05;;;6.65;;
68989;SDS011;56046;47.270;11.368;2023-03-24T06:31:04;10.20;;;6.57;;
68989;SDS011;56046;47.270;11.368;2023-03-24T06:33:29;9.90;;;6.17;;
68989;SDS011;56046;47.270;11.368;2023-03-24T06:35:54;21.83;;;10.33;;
68989;SDS011;56046;47.270;11.368;2023-03-24T06:38:20;32.13;;;13.13;;
68989;SDS011;56046;47.270;11.368;2023-03-24T06:40:46;13.07;;;6.83;;
68989;SDS011;56046;47.270;11.368;2023-03-24T06:43:11;10.97;;;6.07;;
68989;SDS011;56046;47.270;11.368;2023-03-24T06:45:36;10.80;;;6.70;;
68989;SDS011;56046;47.270;11.368;2023-03-24T06:48:03;13.80;;;5.87;;
68989;SDS011;56046;47.270;11.368;2023-03-24T06:50:28;9.77;;;5.65;;
68989;SDS011;56046;47.270;11.368;2023-03-24T06:52:57;10.50;;;6.37;;
68989;SDS011;56046;47.270;11.368;2023-03-24T06:55:23;14.07;;;5.93;;
68989;SDS011;56046;47.270;11.368;2023-03-24T06:57:48;12.00;;;6.17;;
68989;SDS011;56046;47.270;11.368;2023-03-24T07:00:13;12.47;;;6.47;;
68989;SDS011;56046;47.270;11.368;2023-03-24T07:02:38;10.77;;;5.80;;
68989;SDS011;56046;47.270;11.368;2023-03-24T07:05:04;10.88;;;5.50;;
68989;SDS011;56046;47.270;11.368;2023-03-24T07:07:31;10.17;;;5.83;;
68989;SDS011;56046;47.270;11.368;2023-03-24T07:09:57;10.30;;;5.82;;
68989;SDS011;56046;47.270;11.368;2023-03-24T07:12:22;33.43;;;12.90;;
68989;SDS011;56046;47.270;11.368;2023-03-24T07:14:47;11.30;;;5.83;;
68989;SDS011;56046;47.270;11.368;2023-03-24T07:17:13;14.23;;;6.50;;
68989;SDS011;56046;47.270;11.368;2023-03-24T07:19:38;10.13;;;5.90;;
68989;SDS011;56046;47.270;11.368;2023-03-24T07:22:03;10.63;;;5.73;;
68989;SDS011;56046;47.270;11.368;2023-03-24T07:24:28;14.13;;;7.13;;
68989;SDS011;56046;47.270;11.368;2023-03-24T07:26:54;12.37;;;5.97;;
68989;SDS011;56046;47.270;11.368;2023-03-24T07:29:19;17.67;;;7.10;;
68989;SDS011;56046;47.270;11.368;2023-03-24T07:31:45;11.73;;;5.90;;
68989;SDS011;56046;47.270;11.368;2023-03-24T07:34:12;12.93;;;7.43;;
68989;SDS011;56046;47.270;11.368;2023-03-24T07:36:38;11.98;;;7.00;;
68989;SDS011;56046;47.270;11.368;2023-03-24T07:39:03;10.63;;;6.40;;
68989;SDS011;56046;47.270;11.368;2023-03-24T07:41:29;11.90;;;6.50;;
68989;SDS011;56046;47.270;11.368;2023-03-24T07:43:54;11.57;;;6.37;;
68989;SDS011;56046;47.270;11.368;2023-03-24T07:46:19;14.65;;;5.78;;
68989;SDS011;56046;47.270;11.368;2023-03-24T07:48:45;10.10;;;5.53;;
68989;SDS011;56046;47.270;11.368;2023-03-24T07:51:11;15.43;;;7.05;;
68989;SDS011;56046;47.270;11.368;2023-03-24T07:53:36;11.13;;;5.70;;
68989;SDS011;56046;47.270;11.368;2023-03-24T07:56:01;14.60;;;6.07;;
68989;SDS011;56046;47.270;11.368;2023-03-24T07:58:27;10.53;;;5.87;;
68989;SDS011;56046;47.270;11.368;2023-03-24T08:00:52;12.07;;;6.40;;
68989;SDS011;56046;47.270;11.368;2023-03-24T08:03:17;10.77;;;5.77;;
68989;SDS011;56046;47.270;11.368;2023-03-24T08:05:43;11.20;;;6.38;;
68989;SDS011;56046;47.270;11.368;2023-03-24T08:08:09;12.37;;;6.60;;
68989;SDS011;56046;47.270;11.368;2023-03-24T08:10:34;13.02;;;6.07;;
68989;SDS011;56046;47.270;11.368;2023-03-24T08:13:00;12.03;;;5.93;;
68989;SDS011;56046;47.270;11.368;2023-03-24T08:15:26;9.70;;;5.90;;
68989;SDS011;56046;47.270;11.368;2023-03-24T08:17:52;12.13;;;5.90;;
68989;SDS011;56046;47.270;11.368;2023-03-24T08:20:18;9.30;;;6.17;;
68989;SDS011;56046;47.270;11.368;2023-03-24T08:22:45;9.73;;;6.05;;
68989;SDS011;56046;47.270;11.368;2023-03-24T08:25:13;11.80;;;6.40;;
68989;SDS011;56046;47.270;11.368;2023-03-24T08:27:39;10.82;;;5.82;;
68989;SDS011;56046;47.270;11.368;2023-03-24T08:30:07;10.70;;;5.53;;
68989;SDS011;56046;47.270;11.368;2023-03-24T08:32:34;13.93;;;5.82;;
68989;SDS011;56046;47.270;11.368;2023-03-24T08:35:00;8.53;;;5.50;;
68989;SDS011;56046;47.270;11.368;2023-03-24T08:37:26;9.73;;;5.22;;
68989;SDS011;56046;47.270;11.368;2023-03-24T08:39:52;9.00;;;5.67;;
68989;SDS011;56046;47.270;11.368;2023-03-24T08:42:17;8.67;;;5.73;;
68989;SDS011;56046;47.270;11.368;2023-03-24T08:44:42;8.67;;;4.90;;
68989;SDS011;56046;47.270;11.368;2023-03-24T08:47:08;10.07;;;5.55;;
68989;SDS011;56046;47.270;11.368;2023-03-24T08:49:33;8.33;;;4.90;;
68989;SDS011;56046;47.270;11.368;2023-03-24T08:51:59;8.47;;;4.97;;
68989;SDS011;56046;47.270;11.368;2023-03-24T08:54:24;8.30;;;5.17;;
68989;SDS011;56046;47.270;11.368;2023-03-24T08:56:50;10.70;;;4.93;;
68989;SDS011;56046;47.270;11.368;2023-03-24T08:59:15;10.70;;;6.33;;
68989;SDS011;56046;47.270;11.368;2023-03-24T09:01:41;12.00;;;5.93;;
68989;SDS011;56046;47.270;11.368;2023-03-24T09:04:06;8.98;;;5.15;;
68989;SDS011;56046;47.270;11.368;2023-03-24T09:06:32;9.77;;;5.87;;
68989;SDS011;56046;47.270;11.368;2023-03-24T09:08:58;9.73;;;6.25;;
68989;SDS011;56046;47.270;11.368;2023-03-24T09:11:23;9.70;;;5.47;;
68989;SDS011;56046;47.270;11.368;2023-03-24T09:13:49;10.30;;;5.67;;
68989;SDS011;56046;47.270;11.368;2023-03-24T09:16:14;12.20;;;5.80;;
68989;SDS011;56046;47.270;11.368;2023-03-24T09:18:40;10.47;;;5.43;;
68989;SDS011;56046;47.270;11.368;2023-03-24T09:21:06;10.68;;;5.10;;
68989;SDS011;56046;47.270;11.368;2023-03-24T09:23:32;9.80;;;5.40;;
68989;SDS011;56046;47.270;11.368;2023-03-24T09:25:57;10.47;;;5.70;;
68989;SDS011;56046;47.270;11.368;2023-03-24T09:28:23;18.23;;;6.18;;
68989;SDS011;56046;47.270;11.368;2023-03-24T09:30:48;9.50;;;5.90;;
68989;SDS011;56046;47.270;11.368;2023-03-24T09:33:14;15.18;;;6.20;;
68989;SDS011;56046;47.270;11.368;2023-03-24T09:35:40;9.90;;;6.00;;
68989;SDS011;56046;47.270;11.368;2023-03-24T09:38:05;8.83;;;5.67;;
68989;SDS011;56046;47.270;11.368;2023-03-24T09:40:31;10.13;;;6.03;;
68989;SDS011;56046;47.270;11.368;2023-03-24T09:43:02;9.50;;;5.68;;
68989;SDS011;56046;47.270;11.368;2023-03-24T09:45:28;10.57;;;6.05;;
68989;SDS011;56046;47.270;11.368;2023-03-24T09:48:01;10.75;;;5.50;;
68989;SDS011;56046;47.270;11.368;2023-03-24T09:51:14;9.93;;;5.90;;
68989;SDS011;56046;47.270;11.368;2023-03-24T09:53:35;12.07;;;6.00;;
68989;SDS011;56046;47.270;11.368;2023-03-24T09:56:00;12.30;;;6.40;;
68989;SDS011;56046;47.270;11.368;2023-03-24T09:58:28;9.30;;;5.80;;
68989;SDS011;56046;47.270;11.368;2023-03-24T10:00:53;12.52;;;5.80;;
68989;SDS011;56046;47.270;11.368;2023-03-24T10:03:20;10.33;;;5.80;;
68989;SDS011;56046;47.270;11.368;2023-03-24T10:08:20;11.67;;;6.10;;
68989;SDS011;56046;47.270;11.368;2023-03-24T10:10:55;11.32;;;5.60;;
68989;SDS011;56046;47.270;11.368;2023-03-24T10:13:26;11.10;;;6.10;;
68989;SDS011;56046;47.270;11.368;2023-03-24T10:16:28;8.80;;;5.95;;
68989;SDS011;56046;47.270;11.368;2023-03-24T10:23:35;13.17;;;6.17;;
68989;SDS011;56046;47.270;11.368;2023-03-24T10:31:09;9.77;;;6.03;;
68989;SDS011;56046;47.270;11.368;2023-03-24T10:33:36;12.30;;;6.35;;
68989;SDS011;56046;47.270;11.368;2023-03-24T10:36:13;12.37;;;6.33;;
68989;SDS011;56046;47.270;11.368;2023-03-24T10:38:42;11.55;;;6.05;;
68989;SDS011;56046;47.270;11.368;2023-03-24T10:41:11;10.45;;;5.90;;
68989;SDS011;56046;47.270;11.368;2023-03-24T10:43:38;11.33;;;6.57;;
68989;SDS011;56046;47.270;11.368;2023-03-24T10:46:04;10.98;;;6.88;;
68989;SDS011;56046;47.270;11.368;2023-03-24T10:51:04;10.02;;;6.47;;
68989;SDS011;56046;47.270;11.368;2023-03-24T10:53:30;11.57;;;6.45;;
68989;SDS011;56046;47.270;11.368;2023-03-24T10:55:57;10.48;;;6.72;;
68989;SDS011;56046;47.270;11.368;2023-03-24T11:00:47;11.40;;;7.10;;
68989;SDS011;56046;47.270;11.368;2023-03-24T11:03:15;12.03;;;6.60;;
68989;SDS011;56046;47.270;11.368;2023-03-24T11:05:40;13.38;;;7.28;;
68989;SDS011;56046;47.270;11.368;2023-03-24T11:08:20;11.20;;;7.68;;
68989;SDS011;56046;47.270;11.368;2023-03-24T11:10:47;14.77;;;7.70;;
68989;SDS011;56046;47.270;11.368;2023-03-24T11:13:17;13.02;;;8.23;;
68989;SDS011;56046;47.270;11.368;2023-03-24T11:15:53;13.30;;;7.80;;
68989;SDS011;56046;47.270;11.368;2023-03-24T11:18:19;12.18;;;6.97;;
68989;SDS011;56046;47.270;11.368;2023-03-24T11:20:52;15.50;;;8.13;;
68989;SDS011;56046;47.270;11.368;2023-03-24T11:25:59;10.93;;;7.00;;
68989;SDS011;56046;47.270;11.368;2023-03-24T11:28:25;11.73;;;7.43;;
68989;SDS011;56046;47.270;11.368;2023-03-24T11:30:52;12.45;;;7.50;;
68989;SDS011;56046;47.270;11.368;2023-03-24T11:35:43;12.67;;;8.03;;
68989;SDS011;56046;47.270;11.368;2023-03-24T11:38:12;11.90;;;7.60;;
68989;SDS011;56046;47.270;11.368;2023-03-24T11:40:40;12.35;;;8.27;;
68989;SDS011;56046;47.270;11.368;2023-03-24T11:43:18;14.70;;;8.27;;
68989;SDS011;56046;47.270;11.368;2023-03-24T11:45:45;12.07;;;7.57;;
68989;SDS011;56046;47.270;11.368;2023-03-24T11:50:44;13.10;;;8.38;;
68989;SDS011;56046;47.270;11.368;2023-03-24T11:53:20;13.10;;;8.33;;
68989;SDS011;56046;47.270;11.368;2023-03-24T11:55:51;14.93;;;8.63;;
68989;SDS011;56046;47.270;11.368;2023-03-24T11:58:26;13.98;;;8.07;;
68989;SDS011;56046;47.270;11.368;2023-03-24T12:03:33;13.48;;;8.48;;
68989;SDS011;56046;47.270;11.368;2023-03-24T12:08:57;14.13;;;8.27;;
68989;SDS011;56046;47.270;11.368;2023-03-24T12:11:20;11.10;;;7.90;;
68989;SDS011;56046;47.270;11.368;2023-03-24T12:13:48;13.57;;;8.60;;
68989;SDS011;56046;47.270;11.368;2023-03-24T12:16:24;14.95;;;8.50;;
68989;SDS011;56046;47.270;11.368;2023-03-24T12:18:56;14.68;;;8.23;;
68989;SDS011;56046;47.270;11.368;2023-03-24T12:24:05;15.43;;;8.90;;
68989;SDS011;56046;47.270;11.368;2023-03-24T12:26:35;15.45;;;8.73;;
68989;SDS011;56046;47.270;11.368;2023-03-24T12:39:27;15.95;;;9.93;;
68989;SDS011;56046;47.270;11.368;2023-03-24T12:42:02;16.48;;;9.50;;
68989;SDS011;56046;47.270;11.368;2023-03-24T12:52:22;14.77;;;9.90;;
68989;SDS011;56046;47.270;11.368;2023-03-24T12:57:29;15.70;;;9.97;;
68989;SDS011;56046;47.270;11.368;2023-03-24T13:00:00;15.73;;;9.95;;
68989;SDS011;56046;47.270;11.368;2023-03-24T13:02:33;15.30;;;9.88;;
68989;SDS011;56046;47.270;11.368;2023-03-24T13:05:01;15.77;;;10.00;;
68989;SDS011;56046;47.270;11.368;2023-03-24T13:07:29;16.27;;;10.07;;
68989;SDS011;56046;47.270;11.368;2023-03-24T13:10:02;15.93;;;10.03;;
68989;SDS011;56046;47.270;11.368;2023-03-24T13:12:42;17.20;;;10.90;;
68989;SDS011;56046;47.270;11.368;2023-03-24T13:18:34;19.47;;;10.37;;
68989;SDS011;56046;47.270;11.368;2023-03-24T13:22:53;18.30;;;10.07;;
68989;SDS011;56046;47.270;11.368;2023-03-24T13:27:49;17.40;;;10.23;;
68989;SDS011;56046;47.270;11.368;2023-03-24T13:30:35;15.93;;;9.40;;
68989;SDS011;56046;47.270;11.368;2023-03-24T13:33:06;17.90;;;10.18;;
68989;SDS011;56046;47.270;11.368;2023-03-24T13:38:17;15.70;;;8.57;;
68989;SDS011;56046;47.270;11.368;2023-03-24T13:40:46;14.50;;;8.93;;
68989;SDS011;56046;47.270;11.368;2023-03-24T13:43:12;16.17;;;9.20;;
68989;SDS011;56046;47.270;11.368;2023-03-24T13:45:45;16.20;;;10.10;;
68989;SDS011;56046;47.270;11.368;2023-03-24T13:50:57;17.10;;;10.77;;
68989;SDS011;56046;47.270;11.368;2023-03-24T13:53:31;20.20;;;11.55;;
68989;SDS011;56046;47.270;11.368;2023-03-24T13:55:57;17.57;;;10.17;;
68989;SDS011;56046;47.270;11.368;2023-03-24T13:58:25;19.73;;;11.10;;
68989;SDS011;56046;47.270;11.368;2023-03-24T14:03:39;16.58;;;9.90;;
68989;SDS011;56046;47.270;11.368;2023-03-24T14:06:07;16.70;;;9.93;;
68989;SDS011;56046;47.270;11.368;2023-03-24T14:08:33;17.23;;;9.33;;
68989;SDS011;56046;47.270;11.368;2023-03-24T14:10:59;20.67;;;10.23;;
68989;SDS011;56046;47.270;11.368;2023-03-24T14:13:34;16.30;;;9.77;;
68989;SDS011;56046;47.270;11.368;2023-03-24T14:16:00;17.45;;;10.40;;
68989;SDS011;56046;47.270;11.368;2023-03-24T14:18:45;16.25;;;9.43;;
68989;SDS011;56046;47.270;11.368;2023-03-24T14:21:12;15.82;;;10.02;;
68989;SDS011;56046;47.270;11.368;2023-03-24T14:26:07;16.35;;;8.02;;
68989;SDS011;56046;47.270;11.368;2023-03-24T14:33:24;14.50;;;8.73;;
68989;SDS011;56046;47.270;11.368;2023-03-24T14:35:50;15.50;;;9.70;;
68989;SDS011;56046;47.270;11.368;2023-03-24T14:38:22;16.17;;;9.02;;
68989;SDS011;56046;47.270;11.368;2023-03-24T14:40:49;12.68;;;8.30;;
68989;SDS011;56046;47.270;11.368;2023-03-24T14:43:17;14.07;;;8.60;;
68989;SDS011;56046;47.270;11.368;2023-03-24T14:50:49;12.55;;;8.02;;
68989;SDS011;56046;47.270;11.368;2023-03-24T14:53:17;14.03;;;7.27;;
68989;SDS011;56046;47.270;11.368;2023-03-24T14:55:44;12.77;;;7.93;;
68989;SDS011;56046;47.270;11.368;2023-03-24T14:58:23;14.55;;;8.10;;
68989;SDS011;56046;47.270;11.368;2023-03-24T15:00:52;14.52;;;8.43;;
68989;SDS011;56046;47.270;11.368;2023-03-24T15:03:29;14.02;;;8.45;;
68989;SDS011;56046;47.270;11.368;2023-03-24T15:06:29;13.60;;;8.27;;
68989;SDS011;56046;47.270;11.368;2023-03-24T15:08:48;12.70;;;8.15;;
68989;SDS011;56046;47.270;11.368;2023-03-24T15:11:14;13.73;;;8.30;;
68989;SDS011;56046;47.270;11.368;2023-03-24T15:13:59;13.88;;;7.90;;
68989;SDS011;56046;47.270;11.368;2023-03-24T15:16:28;12.25;;;6.97;;
68989;SDS011;56046;47.270;11.368;2023-03-24T15:18:55;13.03;;;8.30;;
68989;SDS011;56046;47.270;11.368;2023-03-24T15:23:48;10.50;;;7.20;;
68989;SDS011;56046;47.270;11.368;2023-03-24T15:26:14;13.93;;;7.18;;
68989;SDS011;56046;47.270;11.368;2023-03-24T15:28:39;17.93;;;7.93;;
68989;SDS011;56046;47.270;11.368;2023-03-24T15:31:05;12.07;;;7.50;;
68989;SDS011;56046;47.270;11.368;2023-03-24T15:33:37;12.65;;;7.47;;
68989;SDS011;56046;47.270;11.368;2023-03-24T15:36:02;14.83;;;7.40;;
68989;SDS011;56046;47.270;11.368;2023-03-24T15:38:28;11.85;;;7.32;;
68989;SDS011;56046;47.270;11.368;2023-03-24T15:40:57;12.57;;;7.32;;
68989;SDS011;56046;47.270;11.368;2023-03-24T15:43:24;12.20;;;7.73;;
68989;SDS011;56046;47.270;11.368;2023-03-24T15:45:51;13.55;;;7.40;;
68989;SDS011;56046;47.270;11.368;2023-03-24T15:48:17;12.17;;;7.37;;
68989;SDS011;56046;47.270;11.368;2023-03-24T15:50:58;12.23;;;6.72;;
68989;SDS011;56046;47.270;11.368;2023-03-24T15:53:41;10.98;;;6.07;;
68989;SDS011;56046;47.270;11.368;2023-03-24T15:58:46;11.07;;;6.57;;
68989;SDS011;56046;47.270;11.368;2023-03-24T16:01:12;12.93;;;7.40;;
68989;SDS011;56046;47.270;11.368;2023-03-24T16:03:41;11.60;;;7.18;;
68989;SDS011;56046;47.270;11.368;2023-03-24T16:06:11;12.43;;;6.50;;
68989;SDS011;56046;47.270;11.368;2023-03-24T16:08:36;11.35;;;6.45;;
68989;SDS011;56046;47.270;11.368;2023-03-24T16:11:05;10.63;;;6.37;;
68989;SDS011;56046;47.270;11.368;2023-03-24T16:13:35;11.63;;;6.40;;
68989;SDS011;56046;47.270;11.368;2023-03-24T16:16:08;10.30;;;5.50;;
68989;SDS011;56046;47.270;11.368;2023-03-24T16:18:42;9.95;;;5.20;;
68989;SDS011;56046;47.270;11.368;2023-03-24T16:21:14;11.93;;;6.55;;
68989;SDS011;56046;47.270;11.368;2023-03-24T16:23:40;10.33;;;5.83;;
68989;SDS011;56046;47.270;11.368;2023-03-24T16:26:16;11.07;;;5.32;;
68989;SDS011;56046;47.270;11.368;2023-03-24T16:28:42;9.65;;;6.03;;
68989;SDS011;56046;47.270;11.368;2023-03-24T16:31:12;8.73;;;5.20;;
68989;SDS011;56046;47.270;11.368;2023-03-24T16:33:40;11.07;;;5.97;;
68989;SDS011;56046;47.270;11.368;2023-03-24T16:36:05;10.07;;;6.13;;
68989;SDS011;56046;47.270;11.368;2023-03-24T16:38:31;7.45;;;4.05;;
68989;SDS011;56046;47.270;11.368;2023-03-24T16:40:57;7.72;;;4.70;;
68989;SDS011;56046;47.270;11.368;2023-03-24T16:43:22;5.07;;;2.67;;
68989;SDS011;56046;47.270;11.368;2023-03-24T16:45:48;7.30;;;4.10;;
68989;SDS011;56046;47.270;11.368;2023-03-24T16:48:14;6.93;;;4.07;;
68989;SDS011;56046;47.270;11.368;2023-03-24T16:50:43;8.07;;;4.23;;
68989;SDS011;56046;47.270;11.368;2023-03-24T16:53:09;6.03;;;2.92;;
68989;SDS011;56046;47.270;11.368;2023-03-24T16:55:35;5.63;;;2.50;;
68989;SDS011;56046;47.270;11.368;2023-03-24T16:58:01;7.45;;;3.40;;
68989;SDS011;56046;47.270;11.368;2023-03-24T17:00:26;5.93;;;2.95;;
68989;SDS011;56046;47.270;11.368;2023-03-24T17:02:54;6.47;;;2.13;;
68989;SDS011;56046;47.270;11.368;2023-03-24T17:05:21;4.38;;;1.83;;
68989;SDS011;56046;47.270;11.368;2023-03-24T17:07:47;3.75;;;1.52;;
68989;SDS011;56046;47.270;11.368;2023-03-24T17:10:12;4.33;;;1.80;;
68989;SDS011;56046;47.270;11.368;2023-03-24T17:12:38;3.57;;;1.40;;